createdAt,value
2016-10-01T00:01:02.677Z,0
2016-10-01T00:01:47.782Z,0
2016-10-01T00:03:02.721Z,0
2016-10-01T00:03:47.829Z,0
2016-10-01T00:06:47.888Z,0
2016-10-01T00:07:47.916Z,0
2016-10-01T00:09:47.969Z,0
2016-10-01T00:10:47.981Z,0
2016-10-01T00:12:02.930Z,0
2016-10-01T00:12:48.028Z,0
2016-10-01T00:13:48.048Z,0
2016-10-01T00:15:02.994Z,0
2016-10-01T00:15:48.448Z,0
2016-10-01T00:17:03.034Z,0
2016-10-01T00:17:48.139Z,0
2016-10-01T00:19:03.084Z,0
2016-10-01T00:19:48.177Z,0
2016-10-01T00:20:48.205Z,0
2016-10-01T00:21:48.219Z,0
2016-10-01T00:22:48.301Z,0
2016-10-01T00:23:48.323Z,0
2016-10-01T00:24:48.295Z,0
2016-10-01T00:25:48.315Z,0
2016-10-01T00:26:48.341Z,0
2016-10-01T00:27:48.360Z,0
2016-10-01T00:28:48.399Z,0
2016-10-01T00:29:48.408Z,0
2016-10-01T00:30:48.451Z,0
2016-10-01T00:32:03.373Z,0
2016-10-01T00:32:48.480Z,0
2016-10-01T00:34:03.415Z,0
2016-10-01T00:35:03.436Z,0
2016-10-01T00:35:48.550Z,0
2016-10-01T00:37:48.589Z,0
2016-10-01T00:38:48.612Z,0
2016-10-01T00:39:48.630Z,0
2016-10-01T00:40:48.652Z,0
2016-10-01T00:41:48.735Z,0
2016-10-01T00:42:48.696Z,0
2016-10-01T00:44:03.648Z,0
2016-10-01T00:44:48.740Z,0
2016-10-01T00:45:48.764Z,0
2016-10-01T00:46:48.783Z,0
2016-10-01T00:49:03.752Z,0
2016-10-01T00:49:48.870Z,0
2016-10-01T00:51:03.803Z,0
2016-10-01T00:51:48.911Z,0
2016-10-01T00:52:48.927Z,0
2016-10-01T00:53:48.946Z,0
2016-10-01T00:54:48.973Z,0
2016-10-01T00:55:48.997Z,0
2016-10-01T00:56:49.013Z,0
2016-10-01T00:57:49.034Z,0
2016-10-01T00:59:03.984Z,0
2016-10-01T00:59:49.075Z,0
2016-10-01T01:00:49.097Z,0
2016-10-01T01:01:49.124Z,0
2016-10-01T01:02:49.149Z,0
2016-10-01T01:03:49.220Z,0
2016-10-01T01:04:49.191Z,0
2016-10-01T01:06:04.138Z,0
2016-10-01T01:06:49.236Z,0
2016-10-01T01:07:49.259Z,0
2016-10-01T01:08:49.285Z,0
2016-10-01T01:09:49.303Z,0
2016-10-01T01:10:49.329Z,0
2016-10-01T01:11:49.352Z,0
2016-10-01T01:12:49.374Z,0
2016-10-01T01:14:04.316Z,0
2016-10-01T01:15:49.652Z,0
2016-10-01T01:17:04.383Z,0
2016-10-01T01:17:49.475Z,0
2016-10-01T01:18:49.502Z,0
2016-10-01T01:20:04.443Z,0
2016-10-01T01:20:49.549Z,0
2016-10-01T01:21:49.574Z,0
2016-10-01T01:22:49.599Z,0
2016-10-01T01:23:49.617Z,0
2016-10-01T01:24:49.639Z,0
2016-10-01T01:25:49.660Z,0
2016-10-01T01:26:49.682Z,0
2016-10-01T01:27:49.697Z,0
2016-10-01T01:28:49.727Z,0
2016-10-01T01:29:49.745Z,0
2016-10-01T01:30:49.772Z,0
2016-10-01T01:32:49.837Z,0
2016-10-01T01:33:49.836Z,0
2016-10-01T01:34:49.879Z,0
2016-10-01T01:35:49.883Z,0
2016-10-01T01:37:04.829Z,0
2016-10-01T01:38:05.143Z,0
2016-10-01T01:38:49.956Z,0
2016-10-01T01:39:49.972Z,0
2016-10-01T01:40:49.998Z,0
2016-10-01T01:41:50.023Z,0
2016-10-01T01:42:50.037Z,0
2016-10-01T01:43:50.109Z,0
2016-10-01T01:44:50.082Z,0
2016-10-01T01:45:50.103Z,0
2016-10-01T01:46:50.126Z,0
2016-10-01T01:47:50.138Z,0
2016-10-01T01:48:50.171Z,0
2016-10-01T01:49:50.204Z,0
2016-10-01T01:50:50.211Z,0
2016-10-01T01:52:05.156Z,0
2016-10-01T01:52:50.258Z,0
2016-10-01T01:54:05.200Z,0
2016-10-01T01:54:50.353Z,0
2016-10-01T01:55:50.338Z,0
2016-10-01T01:56:50.341Z,0
2016-10-01T01:57:50.363Z,0
2016-10-01T01:58:50.382Z,0
2016-10-01T01:59:50.418Z,0
2016-10-01T02:00:50.433Z,0
2016-10-01T02:01:50.454Z,0
2016-10-01T02:02:50.469Z,0
2016-10-01T02:03:50.500Z,0
2016-10-01T02:05:05.444Z,0
2016-10-01T02:05:50.601Z,0
2016-10-01T02:06:50.570Z,0
2016-10-01T02:08:50.612Z,0
2016-10-01T02:10:05.548Z,0
2016-10-01T02:10:50.652Z,0
2016-10-01T02:11:50.687Z,0
2016-10-01T02:12:50.692Z,0
2016-10-01T02:13:50.712Z,0
2016-10-01T02:14:50.739Z,0
2016-10-01T02:15:50.755Z,0
2016-10-01T02:16:50.779Z,0
2016-10-01T02:17:50.802Z,0
2016-10-01T02:18:50.827Z,0
2016-10-01T02:20:05.773Z,0
2016-10-01T02:20:50.870Z,0
2016-10-01T02:21:50.892Z,0
2016-10-01T02:22:51.013Z,0
2016-10-01T02:23:50.977Z,0
2016-10-01T02:24:51.010Z,0
2016-10-01T02:26:05.954Z,0
2016-10-01T02:26:51.004Z,0
2016-10-01T02:28:05.940Z,0
2016-10-01T02:28:51.055Z,0
2016-10-01T02:30:51.394Z,0
2016-10-01T02:31:51.111Z,0
2016-10-01T02:33:51.164Z,0
2016-10-01T02:34:51.198Z,0
2016-10-01T02:35:51.253Z,0
2016-10-01T02:36:51.237Z,0
2016-10-01T02:37:51.243Z,0
2016-10-01T02:38:51.270Z,0
2016-10-01T02:39:51.292Z,0
2016-10-01T02:41:06.228Z,0
2016-10-01T02:41:51.331Z,0
2016-10-01T02:42:51.351Z,0
2016-10-01T02:43:51.378Z,0
2016-10-01T02:44:51.391Z,0
2016-10-01T02:45:51.423Z,0
2016-10-01T02:46:51.437Z,0
2016-10-01T02:47:51.468Z,0
2016-10-01T02:48:51.485Z,0
2016-10-01T02:49:51.508Z,0
2016-10-01T02:50:51.526Z,0
2016-10-01T02:52:06.522Z,0
2016-10-01T02:52:51.573Z,0
2016-10-01T02:54:06.518Z,0
2016-10-01T02:55:51.639Z,0
2016-10-01T02:56:51.657Z,0
2016-10-01T02:58:06.599Z,0
2016-10-01T02:58:51.698Z,0
2016-10-01T02:59:51.724Z,0
2016-10-01T03:00:51.747Z,0
2016-10-01T03:01:51.766Z,0
2016-10-01T03:02:51.792Z,0
2016-10-01T03:03:51.816Z,0
2016-10-01T03:04:51.832Z,0
2016-10-01T03:05:51.858Z,0
2016-10-01T03:06:51.879Z,0
2016-10-01T03:07:51.897Z,0
2016-10-01T03:08:51.975Z,0
2016-10-01T03:09:51.947Z,0
2016-10-01T03:11:51.987Z,0
2016-10-01T03:13:07.139Z,0
2016-10-01T03:13:52.102Z,0
2016-10-01T03:16:06.992Z,0
2016-10-01T03:16:52.105Z,0
2016-10-01T03:17:52.124Z,0
2016-10-01T03:18:52.155Z,0
2016-10-01T03:19:52.208Z,0
2016-10-01T03:20:52.186Z,0
2016-10-01T03:21:52.215Z,0
2016-10-01T03:22:52.283Z,0
2016-10-01T03:23:52.256Z,0
2016-10-01T03:25:07.195Z,0
2016-10-01T03:25:52.306Z,0
2016-10-01T03:26:52.324Z,0
2016-10-01T03:27:52.337Z,0
2016-10-01T03:29:07.285Z,0
2016-10-01T03:29:52.385Z,0
2016-10-01T03:33:52.483Z,0
2016-10-01T03:34:52.739Z,0
2016-10-01T03:36:52.789Z,0
2016-10-01T03:37:52.608Z,0
2016-10-01T03:38:52.588Z,0
2016-10-01T03:39:52.910Z,0
2016-10-01T03:41:07.547Z,0
2016-10-01T03:41:52.643Z,0
2016-10-01T03:43:07.589Z,0
2016-10-01T03:44:07.615Z,0
2016-10-01T03:45:07.636Z,0
2016-10-01T03:45:52.734Z,0
2016-10-01T03:46:52.758Z,0
2016-10-01T03:47:52.779Z,0
2016-10-01T03:48:52.806Z,0
2016-10-01T03:49:52.824Z,0
2016-10-01T03:50:52.848Z,0
2016-10-01T03:51:52.868Z,0
2016-10-01T03:52:52.933Z,0
2016-10-01T03:53:52.908Z,0
2016-10-01T03:54:52.929Z,0
2016-10-01T03:55:52.956Z,0
2016-10-01T03:57:07.902Z,0
2016-10-01T03:57:52.995Z,0
2016-10-01T03:58:53.023Z,0
2016-10-01T03:59:53.059Z,0
2016-10-01T04:01:07.986Z,0
2016-10-01T04:01:53.090Z,0
2016-10-01T04:02:53.112Z,0
2016-10-01T04:03:53.130Z,0
2016-10-01T04:06:53.197Z,0
2016-10-01T04:08:53.235Z,0
2016-10-01T04:10:53.286Z,0
2016-10-01T04:11:53.312Z,0
2016-10-01T04:13:08.255Z,0
2016-10-01T04:13:53.355Z,0
2016-10-01T04:14:53.425Z,0
2016-10-01T04:16:08.321Z,0
2016-10-01T04:16:53.427Z,0
2016-10-01T04:17:53.438Z,0
2016-10-01T04:18:53.460Z,0
2016-10-01T04:20:53.512Z,0
2016-10-01T04:22:53.573Z,0
2016-10-01T04:25:53.616Z,0
2016-10-01T04:26:53.643Z,0
2016-10-01T04:27:53.664Z,0
2016-10-01T04:28:53.681Z,0
2016-10-01T04:29:53.707Z,0
2016-10-01T04:31:08.644Z,0
2016-10-01T04:31:53.760Z,0
2016-10-01T04:32:53.761Z,0
2016-10-01T04:33:53.791Z,0
2016-10-01T04:34:53.811Z,0
2016-10-01T04:35:53.837Z,0
2016-10-01T04:37:53.891Z,0
2016-10-01T04:38:53.951Z,0
2016-10-01T04:39:53.922Z,0
2016-10-01T04:40:53.954Z,0
2016-10-01T04:41:53.974Z,4
2016-10-01T04:42:53.993Z,4
2016-10-01T04:43:54.057Z,4
2016-10-01T04:44:54.033Z,4
2016-10-01T04:45:54.052Z,4
2016-10-01T04:46:54.074Z,4
2016-10-01T04:48:09.066Z,8
2016-10-01T04:48:54.119Z,8
2016-10-01T04:49:54.139Z,12
2016-10-01T04:51:54.198Z,20
2016-10-01T04:52:54.205Z,20
2016-10-01T04:53:54.243Z,24
2016-10-01T04:55:09.378Z,32
2016-10-01T04:55:54.279Z,36
2016-10-01T04:56:54.300Z,44
2016-10-01T04:57:54.320Z,52
2016-10-01T04:58:54.587Z,56
2016-10-01T05:00:09.287Z,60
2016-10-01T05:00:54.383Z,64
2016-10-01T05:01:54.409Z,72
2016-10-01T05:02:54.427Z,80
2016-10-01T05:04:09.372Z,96
2016-10-01T05:04:54.475Z,104
2016-10-01T05:05:54.495Z,112
2016-10-01T05:07:54.542Z,136
2016-10-01T05:08:54.562Z,144
2016-10-01T05:10:54.607Z,152
2016-10-01T05:11:54.644Z,156
2016-10-01T05:12:54.650Z,160
2016-10-01T05:13:54.667Z,160
2016-10-01T05:14:54.699Z,164
2016-10-01T05:15:54.719Z,160
2016-10-01T05:17:09.659Z,156
2016-10-01T05:17:54.755Z,156
2016-10-01T05:18:55.036Z,152
2016-10-01T05:20:09.731Z,156
2016-10-01T05:21:09.744Z,160
2016-10-01T05:21:55.146Z,160
2016-10-01T05:22:54.875Z,168
2016-10-01T05:23:55.143Z,168
2016-10-01T05:24:54.918Z,168
2016-10-01T05:25:54.932Z,172
2016-10-01T05:26:54.957Z,172
2016-10-01T05:27:54.974Z,176
2016-10-01T05:28:55.003Z,184
2016-10-01T05:29:55.029Z,188
2016-10-01T05:30:55.046Z,184
2016-10-01T05:32:09.990Z,188
2016-10-01T05:33:10.010Z,192
2016-10-01T05:33:55.112Z,204
2016-10-01T05:35:10.055Z,216
2016-10-01T05:36:10.079Z,224
2016-10-01T05:36:55.172Z,236
2016-10-01T05:37:55.197Z,272
2016-10-01T05:38:55.221Z,288
2016-10-01T05:39:55.245Z,308
2016-10-01T05:40:55.260Z,316
2016-10-01T05:41:55.285Z,332
2016-10-01T05:42:55.308Z,352
2016-10-01T05:43:55.331Z,360
2016-10-01T05:44:55.551Z,356
2016-10-01T05:47:55.414Z,392
2016-10-01T05:48:55.439Z,392
2016-10-01T05:49:55.459Z,396
2016-10-01T05:51:55.511Z,400
2016-10-01T05:52:55.534Z,416
2016-10-01T05:53:55.557Z,424
2016-10-01T05:54:55.573Z,436
2016-10-01T05:55:55.599Z,432
2016-10-01T05:58:55.664Z,444
2016-10-01T05:59:55.677Z,448
2016-10-01T06:01:10.631Z,472
2016-10-01T06:01:55.733Z,476
2016-10-01T06:03:10.677Z,508
2016-10-01T06:03:55.968Z,520
2016-10-01T06:04:55.795Z,524
2016-10-01T06:06:56.034Z,588
2016-10-01T06:07:55.874Z,652
2016-10-01T06:08:55.887Z,740
2016-10-01T06:10:11.124Z,868
2016-10-01T06:10:55.927Z,956
2016-10-01T06:11:55.955Z,1064
2016-10-01T06:12:55.969Z,1176
2016-10-01T06:13:56.002Z,1280
2016-10-01T06:14:56.013Z,1376
2016-10-01T06:15:56.050Z,1456
2016-10-01T06:16:56.056Z,1492
2016-10-01T06:17:56.088Z,1516
2016-10-01T06:19:11.027Z,1444
2016-10-01T06:19:56.129Z,1380
2016-10-01T06:20:56.147Z,1248
2016-10-01T06:21:56.420Z,1216
2016-10-01T06:23:11.315Z,1188
2016-10-01T06:23:56.219Z,1172
2016-10-01T06:24:56.440Z,1144
2016-10-01T06:25:56.256Z,1088
2016-10-01T06:26:56.278Z,1032
2016-10-01T06:27:56.313Z,976
2016-10-01T06:28:56.327Z,904
2016-10-01T06:29:56.355Z,860
2016-10-01T06:30:56.387Z,872
2016-10-01T06:31:56.394Z,920
2016-10-01T06:32:56.412Z,1012
2016-10-01T06:33:56.442Z,1120
2016-10-01T06:34:56.714Z,1216
2016-10-01T06:35:56.484Z,1312
2016-10-01T06:36:56.498Z,1412
2016-10-01T06:39:11.476Z,1728
2016-10-01T06:40:56.596Z,1896
2016-10-01T06:41:56.616Z,1868
2016-10-01T06:42:56.640Z,1768
2016-10-01T06:43:56.658Z,1704
2016-10-01T06:44:56.686Z,1616
2016-10-01T06:45:56.705Z,1560
2016-10-01T06:46:56.735Z,1544
2016-10-01T06:48:56.781Z,1544
2016-10-01T06:49:56.799Z,1560
2016-10-01T06:50:56.816Z,1616
2016-10-01T06:52:56.960Z,1716
2016-10-01T06:54:11.825Z,1724
2016-10-01T06:55:11.836Z,1736
2016-10-01T06:56:56.960Z,1752
2016-10-01T06:57:56.973Z,1832
2016-10-01T06:58:57.004Z,1948
2016-10-01T06:59:57.024Z,2036
2016-10-01T07:00:57.044Z,2104
2016-10-01T07:01:57.077Z,2196
2016-10-01T07:02:57.087Z,2272
2016-10-01T07:03:57.114Z,2408
2016-10-01T07:04:57.134Z,2608
2016-10-01T07:05:57.160Z,2696
2016-10-01T07:06:57.381Z,2704
2016-10-01T07:07:57.197Z,2708
2016-10-01T07:08:57.229Z,2824
2016-10-01T07:09:57.248Z,2960
2016-10-01T07:11:12.191Z,3144
2016-10-01T07:11:57.291Z,3300
2016-10-01T07:12:57.315Z,3468
2016-10-01T07:13:57.344Z,3596
2016-10-01T07:14:57.360Z,3668
2016-10-01T07:15:57.387Z,3672
2016-10-01T07:16:57.397Z,3724
2016-10-01T07:17:57.427Z,3896
2016-10-01T07:19:12.481Z,4132
2016-10-01T07:19:57.473Z,4168
2016-10-01T07:20:57.503Z,4216
2016-10-01T07:22:12.445Z,4364
2016-10-01T07:23:12.467Z,4560
2016-10-01T07:24:12.493Z,4812
2016-10-01T07:24:57.592Z,5004
2016-10-01T07:26:12.537Z,4944
2016-10-01T07:26:57.640Z,4636
2016-10-01T07:27:57.656Z,4260
2016-10-01T07:29:57.705Z,3644
2016-10-01T07:30:57.734Z,3444
2016-10-01T07:31:57.748Z,3404
2016-10-01T07:32:57.781Z,3400
2016-10-01T07:33:57.794Z,3468
2016-10-01T07:34:57.821Z,3704
2016-10-01T07:35:57.845Z,3916
2016-10-01T07:36:57.867Z,3888
2016-10-01T07:37:57.895Z,3584
2016-10-01T07:39:12.837Z,3072
2016-10-01T07:39:57.941Z,2820
2016-10-01T07:41:12.881Z,2564
2016-10-01T07:41:57.988Z,2492
2016-10-01T07:43:58.033Z,2388
2016-10-01T07:44:58.053Z,2320
2016-10-01T07:45:58.087Z,2280
2016-10-01T07:46:58.103Z,2296
2016-10-01T07:47:58.122Z,2344
2016-10-01T07:48:58.150Z,2384
2016-10-01T07:49:58.168Z,2424
2016-10-01T07:52:13.143Z,2452
2016-10-01T07:52:58.245Z,2428
2016-10-01T07:53:58.263Z,2372
2016-10-01T07:54:58.288Z,2324
2016-10-01T07:55:58.326Z,2308
2016-10-01T07:56:58.331Z,2292
2016-10-01T07:58:13.282Z,2284
2016-10-01T07:58:58.376Z,2312
2016-10-01T07:59:58.397Z,2412
2016-10-01T08:00:58.439Z,2580
2016-10-01T08:01:58.452Z,2780
2016-10-01T08:02:58.473Z,2912
2016-10-01T08:03:58.748Z,3008
2016-10-01T08:04:58.530Z,3076
2016-10-01T08:05:58.549Z,3084
2016-10-01T08:06:58.565Z,3060
2016-10-01T08:07:58.598Z,3016
2016-10-01T08:08:58.611Z,2964
2016-10-01T08:10:58.667Z,2904
2016-10-01T08:11:58.688Z,2928
2016-10-01T08:12:58.707Z,2940
2016-10-01T08:14:58.753Z,2892
2016-10-01T08:15:58.775Z,2784
2016-10-01T08:16:58.795Z,2708
2016-10-01T08:17:58.824Z,2688
2016-10-01T08:18:58.840Z,2708
2016-10-01T08:19:59.129Z,2748
2016-10-01T08:21:14.111Z,2780
2016-10-01T08:21:58.918Z,2760
2016-10-01T08:22:59.143Z,2724
2016-10-01T08:23:58.967Z,2672
2016-10-01T08:24:58.989Z,2640
2016-10-01T08:25:59.019Z,2608
2016-10-01T08:26:59.040Z,2612
2016-10-01T08:27:59.060Z,2636
2016-10-01T08:28:59.078Z,2660
2016-10-01T08:30:14.026Z,2684
2016-10-01T08:30:59.137Z,2708
2016-10-01T08:31:59.150Z,2748
2016-10-01T08:32:59.174Z,2804
2016-10-01T08:33:59.188Z,2856
2016-10-01T08:35:59.249Z,2908
2016-10-01T08:36:59.271Z,2932
2016-10-01T08:37:59.287Z,3008
2016-10-01T08:38:59.320Z,3132
2016-10-01T08:39:59.340Z,3192
2016-10-01T08:40:59.366Z,3160
2016-10-01T08:42:59.413Z,3012
2016-10-01T08:44:14.461Z,2932
2016-10-01T08:44:59.452Z,2920
2016-10-01T08:46:14.404Z,2956
2016-10-01T08:46:59.506Z,2968
2016-10-01T08:47:59.534Z,2952
2016-10-01T08:48:59.547Z,2912
2016-10-01T08:50:14.506Z,2888
2016-10-01T08:50:59.597Z,2904
2016-10-01T08:51:59.618Z,2952
2016-10-01T08:52:59.641Z,2988
2016-10-01T08:53:59.676Z,3040
2016-10-01T08:54:59.692Z,3096
2016-10-01T08:55:59.711Z,3108
2016-10-01T08:56:59.741Z,3044
2016-10-01T08:58:00.062Z,2928
2016-10-01T08:58:59.793Z,2840
2016-10-01T08:59:59.813Z,2796
2016-10-01T09:01:14.763Z,2680
2016-10-01T09:01:59.861Z,2544
2016-10-01T09:02:59.886Z,2400
2016-10-01T09:03:59.917Z,2312
2016-10-01T09:04:59.926Z,2272
2016-10-01T09:05:59.965Z,2272
2016-10-01T09:06:59.972Z,2288
2016-10-01T09:07:59.994Z,2304
2016-10-01T09:09:14.949Z,2328
2016-10-01T09:10:00.051Z,2340
2016-10-01T09:11:14.997Z,2364
2016-10-01T09:12:00.096Z,2392
2016-10-01T09:13:15.046Z,2440
2016-10-01T09:14:00.138Z,2444
2016-10-01T09:15:00.168Z,2496
2016-10-01T09:16:15.109Z,2592
2016-10-01T09:17:15.131Z,2708
2016-10-01T09:18:15.152Z,2832
2016-10-01T09:20:00.281Z,2948
2016-10-01T09:21:00.311Z,2964
2016-10-01T09:22:00.590Z,2912
2016-10-01T09:23:00.355Z,2848
2016-10-01T09:24:00.369Z,2816
2016-10-01T09:25:00.410Z,2744
2016-10-01T09:26:00.424Z,2648
2016-10-01T09:27:00.449Z,2540
2016-10-01T09:28:00.481Z,2428
2016-10-01T09:29:00.529Z,2308
2016-10-01T09:30:00.524Z,2224
2016-10-01T09:31:15.461Z,2184
2016-10-01T09:32:15.486Z,2124
2016-10-01T09:33:15.504Z,2064
2016-10-01T09:34:15.532Z,2032
2016-10-01T09:36:00.671Z,2020
2016-10-01T09:37:00.689Z,2016
2016-10-01T09:38:00.863Z,2040
2016-10-01T09:39:00.729Z,2120
2016-10-01T09:40:00.753Z,2212
2016-10-01T09:41:00.970Z,2232
2016-10-01T09:42:00.800Z,2268
2016-10-01T09:43:00.820Z,2320
2016-10-01T09:44:00.847Z,2404
2016-10-01T09:45:00.867Z,2472
2016-10-01T09:46:00.888Z,2508
2016-10-01T09:47:00.914Z,2536
2016-10-01T09:48:15.911Z,2584
2016-10-01T09:49:15.896Z,2644
2016-10-01T09:50:00.987Z,2652
2016-10-01T09:51:01.011Z,2708
2016-10-01T09:52:01.044Z,2528
2016-10-01T09:53:01.078Z,2284
2016-10-01T09:54:01.085Z,2196
2016-10-01T09:55:01.109Z,2236
2016-10-01T09:56:01.124Z,2336
2016-10-01T09:58:01.178Z,2892
2016-10-01T09:59:01.198Z,3204
2016-10-01T10:00:01.224Z,3324
2016-10-01T10:01:16.171Z,3396
2016-10-01T10:02:01.271Z,3328
2016-10-01T10:03:01.294Z,3048
2016-10-01T10:04:01.566Z,2724
2016-10-01T10:05:16.258Z,2452
2016-10-01T10:06:16.281Z,2332
2016-10-01T10:07:01.389Z,2296
2016-10-01T10:08:01.418Z,2356
2016-10-01T10:09:01.435Z,2508
2016-10-01T10:10:01.459Z,2736
2016-10-01T10:11:01.491Z,2908
2016-10-01T10:12:01.508Z,3008
2016-10-01T10:13:01.530Z,3004
2016-10-01T10:14:01.551Z,2960
2016-10-01T10:15:01.584Z,2920
2016-10-01T10:16:01.604Z,2912
2016-10-01T10:17:16.547Z,2940
2016-10-01T10:18:01.660Z,3000
2016-10-01T10:19:01.683Z,3116
2016-10-01T10:20:01.698Z,3256
2016-10-01T10:21:16.643Z,3492
2016-10-01T10:22:01.743Z,3656
2016-10-01T10:23:01.765Z,3772
2016-10-01T10:24:01.789Z,3776
2016-10-01T10:25:02.013Z,3760
2016-10-01T10:26:01.840Z,3752
2016-10-01T10:27:01.858Z,3800
2016-10-01T10:28:01.888Z,3892
2016-10-01T10:29:01.907Z,4144
2016-10-01T10:30:01.934Z,4220
2016-10-01T10:31:01.955Z,4252
2016-10-01T10:32:01.975Z,4224
2016-10-01T10:33:17.227Z,4220
2016-10-01T10:34:02.021Z,4232
2016-10-01T10:35:16.970Z,4152
2016-10-01T10:36:16.993Z,4048
2016-10-01T10:37:02.096Z,3996
2016-10-01T10:38:02.119Z,3912
2016-10-01T10:39:02.451Z,3928
2016-10-01T10:40:02.166Z,4060
2016-10-01T10:41:02.199Z,4132
2016-10-01T10:42:02.225Z,4232
2016-10-01T10:43:02.439Z,4352
2016-10-01T10:44:02.284Z,4504
2016-10-01T10:45:02.282Z,4708
2016-10-01T10:46:02.307Z,4864
2016-10-01T10:47:02.339Z,5000
2016-10-01T10:48:02.400Z,5024
2016-10-01T10:49:02.408Z,4956
2016-10-01T10:50:17.327Z,4852
2016-10-01T10:52:17.375Z,4948
2016-10-01T10:54:02.498Z,4728
2016-10-01T10:55:02.543Z,4524
2016-10-01T10:56:02.550Z,4356
2016-10-01T10:57:02.578Z,4204
2016-10-01T10:59:02.629Z,3984
2016-10-01T11:00:02.946Z,3824
2016-10-01T11:01:02.669Z,3700
2016-10-01T11:02:02.693Z,3584
2016-10-01T11:03:02.718Z,3476
2016-10-01T11:04:17.666Z,3372
2016-10-01T11:05:02.781Z,3332
2016-10-01T11:06:02.789Z,3368
2016-10-01T11:07:17.739Z,3460
2016-10-01T11:08:17.761Z,3548
2016-10-01T11:09:17.778Z,3580
2016-10-01T11:10:02.887Z,3532
2016-10-01T11:11:03.154Z,3360
2016-10-01T11:12:02.946Z,3072
2016-10-01T11:13:02.957Z,2860
2016-10-01T11:14:02.982Z,2772
2016-10-01T11:15:03.310Z,2636
2016-10-01T11:16:03.031Z,2452
2016-10-01T11:17:03.053Z,2256
2016-10-01T11:18:03.076Z,2092
2016-10-01T11:19:03.097Z,1920
2016-10-01T11:20:18.044Z,1744
2016-10-01T11:21:03.147Z,1676
2016-10-01T11:22:03.172Z,1640
2016-10-01T11:23:03.202Z,1728
2016-10-01T11:24:18.145Z,1872
2016-10-01T11:25:03.249Z,1844
2016-10-01T11:26:03.262Z,1888
2016-10-01T11:27:03.292Z,1836
2016-10-01T11:28:03.510Z,1840
2016-10-01T11:29:03.341Z,1980
2016-10-01T11:30:03.357Z,2284
2016-10-01T11:31:03.386Z,2548
2016-10-01T11:32:03.404Z,2724
2016-10-01T11:33:03.430Z,2756
2016-10-01T11:34:03.457Z,2740
2016-10-01T11:35:03.476Z,2736
2016-10-01T11:36:03.524Z,2580
2016-10-01T11:37:03.527Z,2420
2016-10-01T11:38:03.554Z,2288
2016-10-01T11:39:03.583Z,2140
2016-10-01T11:40:18.518Z,1900
2016-10-01T11:41:03.620Z,1724
2016-10-01T11:42:03.651Z,1568
2016-10-01T11:43:03.673Z,1404
2016-10-01T11:44:03.705Z,1332
2016-10-01T11:45:03.716Z,1268
2016-10-01T11:46:03.839Z,1284
2016-10-01T11:47:03.766Z,1388
2016-10-01T11:48:03.784Z,1452
2016-10-01T11:49:04.065Z,1584
2016-10-01T11:50:03.862Z,1712
2016-10-01T11:51:03.873Z,1704
2016-10-01T11:52:03.884Z,1776
2016-10-01T11:53:03.907Z,1788
2016-10-01T11:54:18.853Z,1752
2016-10-01T11:55:04.207Z,1720
2016-10-01T11:57:04.004Z,1624
2016-10-01T11:58:04.034Z,1600
2016-10-01T11:59:04.057Z,1612
2016-10-01T12:00:04.077Z,1620
2016-10-01T12:01:04.103Z,1620
2016-10-01T12:02:04.128Z,1580
2016-10-01T12:03:04.141Z,1496
2016-10-01T12:04:04.174Z,1404
2016-10-01T12:05:04.192Z,1300
2016-10-01T12:06:04.229Z,1220
2016-10-01T12:07:19.166Z,1204
2016-10-01T12:08:04.261Z,1248
2016-10-01T12:09:04.285Z,1320
2016-10-01T12:10:04.311Z,1416
2016-10-01T12:11:19.462Z,1556
2016-10-01T12:12:04.371Z,1664
2016-10-01T12:13:04.393Z,1820
2016-10-01T12:14:04.409Z,1948
2016-10-01T12:15:04.431Z,2020
2016-10-01T12:16:04.456Z,2052
2016-10-01T12:17:04.477Z,2088
2016-10-01T12:18:19.448Z,2132
2016-10-01T12:19:04.534Z,2136
2016-10-01T12:20:04.551Z,2180
2016-10-01T12:21:04.589Z,2264
2016-10-01T12:22:04.609Z,2344
2016-10-01T12:23:19.548Z,2448
2016-10-01T12:24:04.649Z,2520
2016-10-01T12:25:04.686Z,2588
2016-10-01T12:26:04.695Z,2624
2016-10-01T12:27:04.920Z,2592
2016-10-01T12:28:19.663Z,2460
2016-10-01T12:29:04.774Z,2440
2016-10-01T12:30:04.787Z,2480
2016-10-01T12:31:04.819Z,2564
2016-10-01T12:32:04.832Z,2604
2016-10-01T12:33:04.861Z,2528
2016-10-01T12:34:19.812Z,2372
2016-10-01T12:36:05.080Z,2120
2016-10-01T12:37:04.949Z,2000
2016-10-01T12:38:04.981Z,1956
2016-10-01T12:39:19.927Z,1972
2016-10-01T12:40:05.030Z,2000
2016-10-01T12:41:05.050Z,2064
2016-10-01T12:42:05.071Z,2060
2016-10-01T12:43:20.018Z,1996
2016-10-01T12:44:05.118Z,1908
2016-10-01T12:45:05.149Z,1824
2016-10-01T12:46:05.174Z,1800
2016-10-01T12:47:05.194Z,1856
2016-10-01T12:48:05.214Z,1884
2016-10-01T12:49:05.242Z,1796
2016-10-01T12:50:05.270Z,1708
2016-10-01T12:51:05.289Z,1532
2016-10-01T12:52:05.314Z,1344
2016-10-01T12:53:05.340Z,1216
2016-10-01T12:54:05.361Z,1164
2016-10-01T12:55:05.378Z,1092
2016-10-01T12:56:05.410Z,988
2016-10-01T12:57:05.423Z,912
2016-10-01T12:58:05.710Z,864
2016-10-01T12:59:20.392Z,840
2016-10-01T13:00:05.497Z,864
2016-10-01T13:01:05.529Z,900
2016-10-01T13:02:05.544Z,940
2016-10-01T13:03:05.568Z,1036
2016-10-01T13:04:05.595Z,1116
2016-10-01T13:05:05.619Z,1264
2016-10-01T13:06:05.658Z,1404
2016-10-01T13:09:05.715Z,1732
2016-10-01T13:10:05.738Z,1804
2016-10-01T13:11:05.760Z,1736
2016-10-01T13:12:05.781Z,1620
2016-10-01T13:13:05.802Z,1592
2016-10-01T13:14:05.832Z,1636
2016-10-01T13:15:20.768Z,1680
2016-10-01T13:16:05.884Z,1680
2016-10-01T13:17:05.902Z,1632
2016-10-01T13:18:05.922Z,1556
2016-10-01T13:20:05.968Z,1520
2016-10-01T13:21:05.998Z,1568
2016-10-01T13:22:06.016Z,1596
2016-10-01T13:23:06.043Z,1540
2016-10-01T13:24:20.989Z,1444
2016-10-01T13:25:06.090Z,1356
2016-10-01T13:26:06.115Z,1280
2016-10-01T13:27:06.134Z,1248
2016-10-01T13:28:06.160Z,1316
2016-10-01T13:29:06.186Z,1492
2016-10-01T13:30:06.507Z,1732
2016-10-01T13:31:21.153Z,1792
2016-10-01T13:32:06.514Z,1692
2016-10-01T13:33:06.281Z,1552
2016-10-01T13:34:06.298Z,1512
2016-10-01T13:35:06.321Z,1468
2016-10-01T13:36:06.357Z,1528
2016-10-01T13:37:06.370Z,1616
2016-10-01T13:38:06.390Z,1756
2016-10-01T13:39:06.419Z,1892
2016-10-01T13:40:06.448Z,2100
2016-10-01T13:41:06.465Z,2320
2016-10-01T13:42:06.743Z,2412
2016-10-01T13:43:06.510Z,2368
2016-10-01T13:45:06.559Z,1880
2016-10-01T13:46:21.511Z,1700
2016-10-01T13:47:06.606Z,1616
2016-10-01T13:48:06.668Z,1484
2016-10-01T13:49:06.655Z,1368
2016-10-01T13:50:21.612Z,1344
2016-10-01T13:51:07.252Z,1424
2016-10-01T13:52:06.730Z,1624
2016-10-01T13:53:06.748Z,1924
2016-10-01T13:54:06.775Z,2188
2016-10-01T13:55:06.801Z,2456
2016-10-01T13:56:06.821Z,2700
2016-10-01T13:57:06.844Z,2812
2016-10-01T13:58:06.866Z,2788
2016-10-01T13:59:06.891Z,2608
2016-10-01T14:00:06.920Z,2448
2016-10-01T14:01:07.247Z,2280
2016-10-01T14:02:07.284Z,2064
2016-10-01T14:03:06.992Z,1812
2016-10-01T14:04:07.022Z,1588
2016-10-01T14:05:07.048Z,1432
2016-10-01T14:06:07.061Z,1376
2016-10-01T14:07:07.089Z,1400
2016-10-01T14:08:07.108Z,1412
2016-10-01T14:09:07.135Z,1388
2016-10-01T14:10:07.162Z,1356
2016-10-01T14:11:07.185Z,1292
2016-10-01T14:12:07.204Z,1160
2016-10-01T14:13:07.223Z,1032
2016-10-01T14:14:07.244Z,932
2016-10-01T14:15:07.289Z,884
2016-10-01T14:16:07.299Z,876
2016-10-01T14:17:07.325Z,904
2016-10-01T14:18:22.263Z,988
2016-10-01T14:20:22.314Z,1032
2016-10-01T14:21:07.423Z,992
2016-10-01T14:22:07.445Z,952
2016-10-01T14:23:07.470Z,988
2016-10-01T14:24:07.490Z,1072
2016-10-01T14:25:07.520Z,1212
2016-10-01T14:26:22.466Z,1260
2016-10-01T14:27:07.564Z,1208
2016-10-01T14:28:22.511Z,1084
2016-10-01T14:29:07.609Z,1060
2016-10-01T14:30:07.639Z,1016
2016-10-01T14:31:07.660Z,928
2016-10-01T14:32:22.633Z,872
2016-10-01T14:33:22.635Z,864
2016-10-01T14:34:22.658Z,868
2016-10-01T14:35:07.754Z,860
2016-10-01T14:36:07.786Z,868
2016-10-01T14:37:07.804Z,920
2016-10-01T14:38:07.840Z,1004
2016-10-01T14:39:07.866Z,1112
2016-10-01T14:40:07.872Z,1188
2016-10-01T14:41:07.897Z,1204
2016-10-01T14:42:07.922Z,1272
2016-10-01T14:43:22.874Z,1332
2016-10-01T14:44:08.528Z,1324
2016-10-01T14:45:07.999Z,1252
2016-10-01T14:46:08.016Z,1124
2016-10-01T14:47:08.446Z,988
2016-10-01T14:48:08.067Z,888
2016-10-01T14:49:08.083Z,848